Time;durP1;ratioP1;P1;durP2;ratioP2;P2;SDS_P1;SDS_P2;PMS_P1;PMS_P2;Temp;Humidity;BMP_temperature;BMP_pressure;BME280_temperature;BME280_humidity;BME280_pressure;Samples;Min_cycle;Max_cycle;Signal;HPM_P1;HPM_P2
2024/02/22 00:00:28;;;;;;;;;20.75;16.00;;;;;6.69;100.00;99933.31;114242;244;39913;-53
2024/02/22 00:03:22;;;;;;;;;23.00;17.00;;;;;6.70;100.00;99925.86;114289;241;162379;-50
2024/02/22 00:05:56;;;;;;;;;18.00;13.67;;;;;6.72;100.00;99918.77;114639;243;39752;-50
2024/02/22 00:08:30;;;;;;;;;20.00;14.00;;;;;6.73;100.00;99919.21;114418;242;161980;-51
2024/02/22 00:11:05;;;;;;;;;21.00;15.00;;;;;6.70;100.00;99912.80;114229;244;39220;-51
2024/02/22 00:13:39;;;;;;;;;20.50;15.00;;;;;6.65;100.00;99914.17;114270;244;39347;-50
2024/02/22 00:16:17;;;;;;;;;19.00;15.00;;;;;6.64;100.00;99912.80;114264;242;162141;-50
2024/02/22 00:18:51;;;;;;;;;18.50;15.00;;;;;6.69;100.00;99916.27;114582;243;39976;-50
2024/02/22 00:21:25;;;;;;;;;23.00;15.33;;;;;6.70;100.00;99908.48;114279;242;161674;-50
2024/02/22 00:23:59;;;;;;;;;18.33;13.33;;;;;6.71;100.00;99898.38;114226;244;39000;-49
2024/02/22 00:26:33;;;;;;;;;19.75;15.00;;;;;6.68;100.00;99898.83;114170;241;161954;-53
2024/02/22 00:29:06;;;;;;;;;16.50;12.00;;;;;6.64;100.00;99898.83;114429;243;39796;-53
2024/02/22 00:31:40;;;;;;;;;19.50;12.75;;;;;6.67;100.00;99895.63;114589;243;39331;-50
2024/02/22 00:34:14;;;;;;;;;25.00;18.00;;;;;6.72;100.00;99892.34;114200;242;161586;-50
2024/02/22 00:36:48;;;;;;;;;20.00;15.00;;;;;6.70;100.00;99889.67;114558;243;41034;-52
2024/02/22 00:39:22;;;;;;;;;15.75;12.00;;;;;6.67;100.00;99888.84;114356;241;161930;-53
2024/02/22 00:41:56;;;;;;;;;21.00;16.00;;;;;6.69;100.00;99884.39;114497;243;40841;-54
2024/02/22 00:44:29;;;;;;;;;14.25;10.50;;;;;6.72;100.00;99884.48;114390;241;161760;-54
2024/02/22 00:47:03;;;;;;;;;18.00;15.00;;;;;6.75;100.00;99883.52;114383;243;41096;-52
2024/02/22 00:49:37;;;;;;;;;17.75;12.25;;;;;6.79;100.00;99873.52;114540;243;39785;-52
2024/02/22 00:52:11;;;;;;;;;17.75;12.50;;;;;6.75;100.00;99874.23;114263;241;161495;-50
2024/02/22 00:54:45;;;;;;;;;20.33;12.67;;;;;6.75;100.00;99871.54;114528;243;40151;-50
2024/02/22 00:57:19;;;;;;;;;23.75;18.50;;;;;6.79;100.00;99863.10;114332;241;161627;-53
2024/02/22 00:59:53;;;;;;;;;17.25;12.75;;;;;6.82;100.00;99864.42;114442;243;40024;-53
2024/02/22 01:02:27;;;;;;;;;18.25;14.00;;;;;6.84;99.99;99861.21;114393;241;161996;-52
2024/02/22 01:05:01;;;;;;;;;18.75;14.25;;;;;6.85;99.98;99866.11;114548;242;40540;-52
2024/02/22 01:07:34;;;;;;;;;32.67;23.00;;;;;6.84;99.96;99858.50;114533;243;39886;-52
2024/02/22 01:10:10;;;;;;;;;27.00;19.67;;;;;6.85;99.93;99856.00;114407;241;161161;-53
2024/02/22 01:12:44;;;;;;;;;21.00;17.00;;;;;6.81;99.97;99857.73;114292;243;41471;-51
2024/02/22 01:15:18;;;;;;;;;15.75;13.00;;;;;6.79;99.96;99853.94;114394;241;160639;-51
2024/02/22 01:17:52;;;;;;;;;16.33;13.00;;;;;6.73;99.98;99851.35;114524;242;40036;-53
2024/02/22 01:20:26;;;;;;;;;15.00;12.00;;;;;6.70;99.99;99848.69;114400;241;161704;-53
2024/02/22 01:23:00;;;;;;;;;16.33;13.00;;;;;6.70;99.93;99850.54;114560;242;39849;-50
2024/02/22 01:25:34;;;;;;;;;19.00;14.00;;;;;6.71;99.85;99846.77;114547;243;42501;-49
2024/02/22 01:28:12;;;;;;;;;15.75;11.00;;;;;6.68;99.97;99843.53;114416;241;161469;-52
2024/02/22 01:30:46;;;;;;;;;24.25;15.75;;;;;6.66;99.98;99834.30;114581;242;40185;-52
2024/02/22 01:33:20;;;;;;;;;15.00;13.00;;;;;6.63;99.99;99829.35;114451;241;161556;-50
2024/02/22 01:35:54;;;;;;;;;16.50;12.00;;;;;6.65;99.99;99828.77;114551;243;39624;-50
2024/02/22 01:38:28;;;;;;;;;22.00;17.00;;;;;6.65;100.00;99824.81;114446;239;161471;-50
2024/02/22 01:41:02;;;;;;;;;14.67;11.33;;;;;6.66;99.99;99823.52;114506;242;40639;-49
2024/02/22 01:43:37;;;;;;;;;10.67;9.00;;;;;6.69;99.93;99819.18;114571;242;39625;-49
2024/02/22 01:46:12;;;;;;;;;16.00;12.00;;;;;6.72;99.89;99817.64;114376;239;161283;-49
2024/02/22 01:48:47;;;;;;;;;17.00;13.00;;;;;6.78;99.80;99816.63;114568;243;40902;-49
2024/02/22 01:51:21;;;;;;;;;19.25;14.00;;;;;6.81;99.62;99816.60;114392;239;161460;-51
2024/02/22 01:53:57;;;;;;;;;15.00;12.00;;;;;6.78;99.68;99810.71;114532;242;39990;-54
2024/02/22 01:56:32;;;;;;;;;16.00;11.33;;;;;6.81;99.57;99808.39;114424;239;161567;-52
2024/02/22 01:59:06;;;;;;;;;18.50;14.00;;;;;6.85;99.41;99805.23;114512;243;39072;-52
2024/02/22 02:01:41;;;;;;;;;15.00;12.00;;;;;6.80;99.45;99800.81;114566;243;41303;-49
2024/02/22 02:04:16;;;;;;;;;17.75;12.00;;;;;6.73;99.60;99798.08;114403;239;161411;-49
2024/02/22 02:06:50;;;;;;;;;19.67;14.67;;;;;6.73;99.73;99794.45;114591;243;39287;-51
2024/02/22 02:09:23;;;;;;;;;19.00;13.00;;;;;6.79;99.49;99784.51;114429;239;161354;-50
2024/02/22 02:11:57;;;;;;;;;17.50;13.00;;;;;6.74;99.49;99779.31;114584;243;39997;-50
2024/02/22 02:14:31;;;;;;;;;14.50;12.00;;;;;6.71;99.67;99780.98;114438;239;161510;-50
2024/02/22 02:17:05;;;;;;;;;24.25;18.00;;;;;6.69;99.47;99781.34;114540;243;40389;-52
2024/02/22 02:19:39;;;;;;;;;14.00;11.00;;;;;6.72;99.34;99779.36;114546;243;39215;-52
2024/02/22 02:22:27;;;;;;;;;18.00;15.00;;;;;6.71;99.29;99776.86;114392;241;160698;-51
2024/02/22 02:25:04;;;;;;;;;19.00;14.50;;;;;6.68;99.08;99772.15;114551;242;39632;-51
2024/02/22 02:27:38;;;;;;;;;17.33;13.33;;;;;6.64;99.12;99767.08;114385;239;160598;-52
2024/02/22 02:30:14;;;;;;;;;17.25;13.75;;;;;6.61;99.20;99768.05;114547;242;39632;-52
2024/02/22 02:32:48;;;;;;;;;14.33;10.00;;;;;6.61;99.13;99767.34;114418;239;162006;-52
2024/02/22 02:35:22;;;;;;;;;13.00;9.75;;;;;6.59;98.97;99768.22;114513;243;40874;-52
2024/02/22 02:37:57;;;;;;;;;18.00;13.00;;;;;6.58;98.97;99765.75;114530;243;40782;-50
2024/02/22 02:40:31;;;;;;;;;16.00;11.33;;;;;6.49;99.02;99761.13;114358;241;161741;-50
2024/02/22 02:43:06;;;;;;;;;16.00;12.00;;;;;6.41;99.07;99752.78;114593;243;40453;-50
2024/02/22 02:45:40;;;;;;;;;12.00;9.50;;;;;6.31;98.99;99747.23;114400;241;161870;-51
2024/02/22 02:48:19;;;;;;;;;17.00;13.75;;;;;6.27;99.14;99741.18;114554;243;41111;-51
2024/02/22 02:50:53;;;;;;;;;16.00;13.00;;;;;6.20;98.99;99738.70;114353;242;161517;-50
2024/02/22 02:53:28;;;;;;;;;14.00;10.00;;;;;6.13;98.85;99734.27;114239;244;40078;-53
2024/02/22 02:56:02;;;;;;;;;14.00;11.00;;;;;6.09;98.73;99730.71;114373;244;39997;-53
2024/02/22 02:58:36;;;;;;;;;13.75;11.00;;;;;5.99;98.87;99730.36;114091;242;161398;-51
2024/02/22 03:01:10;;;;;;;;;14.50;10.00;;;;;5.92;98.79;99731.78;114352;244;39590;-51
2024/02/22 03:03:44;;;;;;;;;12.00;9.75;;;;;5.89;98.69;99723.61;114174;242;161312;-54
2024/02/22 03:06:21;;;;;;;;;16.00;13.00;;;;;5.89;98.69;99716.17;114292;244;40092;-53
2024/02/22 03:08:55;;;;;;;;;13.25;10.50;;;;;5.82;98.68;99712.80;114108;242;165448;-51
2024/02/22 03:11:29;;;;;;;;;11.75;9.00;;;;;5.77;98.77;99712.23;114223;244;40093;-53
2024/02/22 03:14:03;;;;;;;;;16.00;12.00;;;;;5.74;98.65;99703.27;114225;244;40256;-54
2024/02/22 03:16:38;;;;;;;;;21.00;14.00;;;;;5.64;98.72;99700.60;114117;242;161255;-53
2024/02/22 03:19:11;;;;;;;;;22.50;14.25;;;;;5.61;98.73;99697.48;114194;244;42660;-53
2024/02/22 03:21:45;;;;;;;;;19.00;14.50;;;;;5.57;98.71;99698.56;114131;242;161585;-54
2024/02/22 03:24:19;;;;;;;;;15.25;12.00;;;;;5.53;98.75;99699.83;114268;244;39921;-54
2024/02/22 03:26:53;;;;;;;;;11.50;8.50;;;;;5.49;98.82;99696.29;114102;242;161166;-53
2024/02/22 03:29:28;;;;;;;;;15.00;11.00;;;;;5.47;98.63;99692.11;114412;243;39811;-54
2024/02/22 03:32:02;;;;;;;;;15.33;12.00;;;;;5.40;98.60;99696.34;114575;243;40816;-50
2024/02/22 03:34:37;;;;;;;;;12.00;9.00;;;;;5.32;98.83;99693.73;114482;241;161320;-50
2024/02/22 03:37:12;;;;;;;;;17.00;11.67;;;;;5.29;98.78;99691.32;114556;243;40195;-52
2024/02/22 03:39:49;;;;;;;;;13.00;10.00;;;;;5.30;98.92;99682.58;114412;241;162450;-52
2024/02/22 03:42:23;;;;;;;;;14.00;12.00;;;;;5.30;98.71;99680.36;114576;243;40743;-52
2024/02/22 03:44:57;;;;;;;;;11.00;9.00;;;;;5.27;98.81;99680.23;114463;241;162135;-52
2024/02/22 03:47:31;;;;;;;;;14.67;11.00;;;;;5.22;98.81;99674.54;114652;243;39272;-50
2024/02/22 03:50:05;;;;;;;;;11.00;9.00;;;;;5.16;98.89;99666.02;114567;243;40273;-48
2024/02/22 03:52:39;;;;;;;;;16.00;11.00;;;;;5.13;98.69;99667.60;114107;242;161271;-49
2024/02/22 03:55:13;;;;;;;;;17.00;11.25;;;;;5.07;98.59;99662.23;114242;244;39598;-49
2024/02/22 03:57:47;;;;;;;;;15.00;11.00;;;;;5.05;98.62;99659.73;114388;242;161387;-52
2024/02/22 04:00:22;;;;;;;;;14.75;11.25;;;;;4.99;98.97;99656.34;114548;243;41031;-53
2024/02/22 04:02:56;;;;;;;;;14.00;11.00;;;;;4.99;99.00;99655.92;114402;242;161517;-53
2024/02/22 04:05:30;;;;;;;;;15.00;12.00;;;;;5.02;99.01;99654.39;114230;244;39824;-53
2024/02/22 04:08:04;;;;;;;;;16.00;13.00;;;;;5.09;98.85;99654.80;114236;244;39609;-52
2024/02/22 04:10:38;;;;;;;;;16.00;12.00;;;;;5.13;98.90;99657.36;114757;241;161542;-52
2024/02/22 04:13:12;;;;;;;;;15.50;11.00;;;;;5.16;98.68;99657.61;114023;243;658860;-49
2024/02/22 04:15:47;;;;;;;;;13.00;9.00;;;;;5.13;98.60;99653.09;114214;243;161680;-49
2024/02/22 04:18:21;;;;;;;;;15.33;12.00;;;;;5.04;98.59;99652.53;114265;244;39743;-53
2024/02/22 04:20:55;;;;;;;;;10.25;8.25;;;;;5.00;98.44;99653.86;114162;242;161768;-53
2024/02/22 04:23:29;;;;;;;;;10.00;7.75;;;;;4.96;98.43;99651.50;114429;243;39698;-49
2024/02/22 04:26:03;;;;;;;;;17.33;11.00;;;;;4.93;98.53;99642.70;114534;243;41092;-49
2024/02/22 04:28:37;;;;;;;;;18.50;11.75;;;;;4.89;98.44;99640.27;114121;242;161129;-50
2024/02/22 04:31:11;;;;;;;;;13.00;10.00;;;;;4.84;98.37;99638.01;114258;244;39349;-50
2024/02/22 04:33:46;;;;;;;;;23.00;14.50;;;;;4.78;98.42;99635.02;114160;241;161321;-50
2024/02/22 04:36:20;;;;;;;;;19.33;15.00;;;;;4.65;98.42;99635.52;114548;242;40715;-52
2024/02/22 04:38:54;;;;;;;;;13.00;10.00;;;;;4.62;98.56;99633.55;114444;239;160796;-52
2024/02/22 04:41:28;;;;;;;;;12.75;10.00;;;;;4.56;98.42;99627.81;114525;243;40716;-50
2024/02/22 04:44:04;;;;;;;;;20.50;16.00;;;;;4.50;98.44;99628.09;114386;243;39573;-49
2024/02/22 04:46:37;;;;;;;;;12.00;9.00;;;;;4.43;98.43;99621.62;114376;239;160459;-50
2024/02/22 04:49:12;;;;;;;;;12.25;10.00;;;;;4.37;98.48;99613.61;114537;242;40163;-50
2024/02/22 04:51:45;;;;;;;;;12.00;8.00;;;;;4.31;98.53;99614.10;114403;239;161567;-52
2024/02/22 04:54:19;;;;;;;;;15.00;10.00;;;;;4.25;98.65;99609.17;114476;243;39274;-53
2024/02/22 04:56:53;;;;;;;;;10.00;8.00;;;;;4.24;98.71;99607.39;114439;239;161461;-50
2024/02/22 04:59:27;;;;;;;;;12.00;9.00;;;;;4.25;98.78;99603.36;114536;242;39580;-50
2024/02/22 05:02:00;;;;;;;;;20.00;15.00;;;;;4.25;98.74;99599.05;114567;243;39803;-49
2024/02/22 05:04:34;;;;;;;;;16.00;10.25;;;;;4.20;98.88;99593.17;114702;233;164574;-49
2024/02/22 05:07:08;;;;;;;;;11.00;9.00;;;;;4.16;98.95;99588.73;114552;242;39798;-52
2024/02/22 05:09:43;;;;;;;;;15.75;12.00;;;;;4.18;99.01;99583.54;114424;241;161819;-52
2024/02/22 05:12:17;;;;;;;;;12.00;10.00;;;;;4.18;99.04;99577.15;114554;243;39107;-52
2024/02/22 05:14:51;;;;;;;;;11.25;7.75;;;;;4.17;99.09;99574.77;114427;242;161534;-52
2024/02/22 05:17:30;;;;;;;;;12.75;10.00;;;;;4.14;99.03;99570.59;114586;243;39414;-49
2024/02/22 05:20:05;;;;;;;;;14.75;11.00;;;;;4.15;99.19;99563.23;114573;242;40568;-49
2024/02/22 05:22:39;;;;;;;;;19.33;15.33;;;;;4.21;98.91;99561.20;114431;241;161342;-53
2024/02/22 05:25:14;;;;;;;;;13.50;11.00;;;;;4.19;98.94;99561.92;114575;242;40898;-53
2024/02/22 05:27:48;;;;;;;;;19.50;15.50;;;;;4.21;99.09;99560.86;114427;241;161572;-49
2024/02/22 05:30:21;;;;;;;;;15.00;11.00;;;;;4.26;99.22;99557.16;114534;242;41071;-50
2024/02/22 05:32:57;;;;;;;;;17.00;13.00;;;;;4.32;99.15;99554.40;114427;241;161597;-51
2024/02/22 05:35:32;;;;;;;;;15.00;10.33;;;;;4.37;99.11;99555.75;114566;242;39356;-51
2024/02/22 05:38:06;;;;;;;;;16.00;12.00;;;;;4.41;99.04;99554.06;114585;242;39751;-50
2024/02/22 05:40:41;;;;;;;;;11.75;9.50;;;;;4.44;99.00;99548.62;114419;239;162871;-50
2024/02/22 05:43:15;;;;;;;;;16.00;11.00;;;;;4.42;98.92;99546.96;114597;242;40486;-50
2024/02/22 05:45:49;;;;;;;;;14.00;11.00;;;;;4.43;98.88;99544.14;114422;240;161839;-50
2024/02/22 05:48:23;;;;;;;;;14.00;11.00;;;;;4.47;98.75;99545.55;114571;243;39341;-49
2024/02/22 05:50:57;;;;;;;;;17.00;12.00;;;;;4.45;98.82;99542.10;114407;241;162057;-49
2024/02/22 05:53:32;;;;;;;;;16.33;13.00;;;;;4.44;98.84;99540.25;114556;242;39750;-52
2024/02/22 05:56:06;;;;;;;;;13.50;10.00;;;;;4.48;98.74;99534.96;114560;243;40510;-52
2024/02/22 05:58:41;;;;;;;;;15.67;10.67;;;;;4.50;98.76;99532.75;114428;241;161216;-52
2024/02/22 06:01:18;;;;;;;;;19.25;15.00;;;;;4.55;98.74;99532.66;114597;242;39642;-52
2024/02/22 06:03:51;;;;;;;;;18.00;14.00;;;;;4.63;98.71;99536.23;114484;241;161929;-53
2024/02/22 06:06:25;;;;;;;;;16.00;12.00;;;;;4.74;98.52;99535.54;114583;243;40074;-52
2024/02/22 06:09:00;;;;;;;;;13.00;10.00;;;;;4.82;98.37;99528.39;114449;241;161623;-53
2024/02/22 06:11:35;;;;;;;;;17.00;12.00;;;;;4.83;98.38;99526.64;114567;242;41218;-50
2024/02/22 06:14:10;;;;;;;;;17.75;14.25;;;;;4.82;98.40;99527.86;114602;242;39783;-50
2024/02/22 06:16:44;;;;;;;;;17.25;13.00;;;;;4.82;98.15;99524.84;114219;241;160302;-52
2024/02/22 06:19:19;;;;;;;;;14.00;11.00;;;;;4.82;98.24;99524.64;114606;243;39242;-52
2024/02/22 06:21:53;;;;;;;;;16.00;12.00;;;;;4.84;98.24;99522.67;114436;241;160491;-54
2024/02/22 06:24:27;;;;;;;;;14.67;11.00;;;;;4.90;97.93;99519.66;114565;243;39668;-53
2024/02/22 06:27:01;;;;;;;;;15.25;11.25;;;;;4.91;97.96;99517.31;114167;242;161352;-53
2024/02/22 06:29:35;;;;;;;;;15.00;11.00;;;;;4.96;97.98;99509.95;114416;243;39606;-53
2024/02/22 06:32:09;;;;;;;;;18.50;14.50;;;;;5.03;97.85;99508.68;114583;243;39784;-49
2024/02/22 06:34:43;;;;;;;;;14.00;11.00;;;;;5.11;97.81;99506.67;114159;242;161162;-48
2024/02/22 06:37:17;;;;;;;;;14.00;11.00;;;;;5.17;97.66;99509.27;114572;243;39696;-50
2024/02/22 06:39:51;;;;;;;;;16.00;13.00;;;;;5.21;97.52;99506.49;114390;241;161648;-50
2024/02/22 06:42:26;;;;;;;;;20.00;15.00;;;;;5.31;97.53;99502.52;114556;243;40142;-50
2024/02/22 06:45:00;;;;;;;;;15.33;12.00;;;;;5.42;97.31;99503.61;114337;242;162384;-50
2024/02/22 06:47:34;;;;;;;;;12.75;10.25;;;;;5.55;97.13;99501.64;114393;243;38970;-52
2024/02/22 06:50:10;;;;;;;;;14.50;11.25;;;;;5.66;97.26;99495.15;114556;243;40447;-51
2024/02/22 06:52:44;;;;;;;;;16.00;12.00;;;;;5.82;96.98;99492.39;114428;241;160916;-53
2024/02/22 06:55:18;;;;;;;;;15.00;12.00;;;;;5.96;96.71;99489.30;114559;243;41012;-53
2024/02/22 06:57:52;;;;;;;;;18.75;14.00;;;;;6.16;96.68;99482.10;114429;242;160998;-50
2024/02/22 07:00:26;;;;;;;;;19.00;15.00;;;;;6.30;96.25;99478.75;114564;243;40020;-50
2024/02/22 07:03:01;;;;;;;;;19.50;13.75;;;;;6.40;96.10;99481.96;114424;241;160836;-52
2024/02/22 07:05:35;;;;;;;;;21.25;16.75;;;;;6.46;95.71;99477.42;114530;243;39446;-51
2024/02/22 07:08:09;;;;;;;;;20.67;14.67;;;;;6.55;95.66;99469.81;114598;242;40430;-50
2024/02/22 07:10:43;;;;;;;;;18.00;14.00;;;;;6.64;95.43;99467.67;114403;241;161284;-50
2024/02/22 07:13:17;;;;;;;;;19.00;14.00;;;;;6.70;95.10;99466.34;114594;243;39592;-51
2024/02/22 07:15:51;;;;;;;;;13.00;11.00;;;;;6.76;94.32;99466.88;114403;241;161324;-51
2024/02/22 07:18:33;;;;;;;;;20.00;13.00;;;;;6.81;94.38;99466.63;114283;242;42523;-50
2024/02/22 07:21:07;;;;;;;;;20.00;16.00;;;;;6.91;94.55;99466.06;114424;242;161155;-51
2024/02/22 07:23:41;;;;;;;;;18.25;15.50;;;;;7.03;94.35;99466.16;114550;243;40350;-52
2024/02/22 07:26:16;;;;;;;;;19.00;15.50;;;;;7.13;93.76;99460.78;114557;243;40003;-51
2024/02/22 07:28:50;;;;;;;;;22.25;16.75;;;;;7.18;93.44;99462.98;114499;243;39574;-50
2024/02/22 07:31:24;;;;;;;;;23.00;17.00;;;;;7.14;93.50;99458.44;114552;242;39703;-50
2024/02/22 07:33:58;;;;;;;;;22.00;18.00;;;;;7.22;93.04;99456.12;114414;241;161785;-49
2024/02/22 07:36:32;;;;;;;;;21.00;15.75;;;;;7.38;93.06;99455.04;114265;242;39617;-49
2024/02/22 07:39:06;;;;;;;;;21.75;17.00;;;;;7.66;92.23;99457.59;114464;241;160824;-49
2024/02/22 07:41:42;;;;;;;;;20.67;16.00;;;;;7.74;91.34;99452.45;114523;243;40383;-52
2024/02/22 07:44:17;;;;;;;;;20.00;15.50;;;;;7.91;91.38;99451.17;114586;243;39505;-52
2024/02/22 07:46:52;;;;;;;;;19.00;13.00;;;;;8.14;91.96;99437.18;114257;242;39788;-54
2024/02/22 07:49:26;;;;;;;;;17.75;14.25;;;;;8.30;90.62;99429.98;114567;243;40188;-54
2024/02/22 07:51:59;;;;;;;;;16.33;12.33;;;;;8.54;91.05;99421.46;114426;241;160859;-53
2024/02/22 07:54:33;;;;;;;;;19.50;15.50;;;;;9.09;90.70;99419.41;114567;242;39594;-54
2024/02/22 07:57:08;;;;;;;;;23.00;18.75;;;;;9.42;90.33;99415.58;114443;242;161552;-49
2024/02/22 07:59:42;;;;;;;;;21.00;17.00;;;;;9.83;89.65;99404.63;114612;243;39807;-50
2024/02/22 08:02:16;;;;;;;;;25.75;17.50;;;;;10.27;87.91;99399.73;114567;243;39492;-49
2024/02/22 08:04:50;;;;;;;;;22.00;17.67;;;;;10.62;86.91;99398.08;114650;242;39849;-50
2024/02/22 08:07:24;;;;;;;;;22.50;19.00;;;;;11.09;87.89;99393.71;114594;243;39428;-51
2024/02/22 08:09:58;;;;;;;;;24.00;20.00;;;;;11.71;87.99;99387.73;114185;241;161008;-51
2024/02/22 08:12:33;;;;;;;;;22.00;18.33;;;;;12.24;86.37;99384.29;114561;243;40045;-54
2024/02/22 08:15:09;;;;;;;;;26.00;20.00;;;;;12.56;85.06;99378.89;114438;241;161382;-55
2024/02/22 08:17:44;;;;;;;;;24.50;20.00;;;;;12.94;84.24;99379.36;114616;243;39650;-52
2024/02/22 08:20:19;;;;;;;;;20.50;16.25;;;;;13.08;81.12;99374.63;114560;243;39970;-50
2024/02/22 08:22:53;;;;;;;;;23.75;19.00;;;;;13.36;80.16;99379.20;114274;243;39485;-53
2024/02/22 08:25:27;;;;;;;;;24.00;19.00;;;;;13.54;79.48;99377.62;114581;243;39855;-54
2024/02/22 08:28:01;;;;;;;;;19.33;16.00;;;;;13.84;79.18;99376.83;114327;241;161241;-51
2024/02/22 08:30:35;;;;;;;;;26.50;20.50;;;;;14.05;78.09;99373.06;114503;243;39930;-51
2024/02/22 08:33:11;;;;;;;;;21.00;18.00;;;;;13.87;77.78;99373.48;114456;240;161601;-53
2024/02/22 08:35:45;;;;;;;;;20.00;17.00;;;;;13.46;77.55;99375.32;114534;242;39714;-53
2024/02/22 08:38:19;;;;;;;;;22.25;18.25;;;;;12.93;76.63;99369.86;114432;243;39227;-53
2024/02/22 08:40:53;;;;;;;;;23.33;18.00;;;;;12.31;77.21;99368.57;114248;243;40044;-53
2024/02/22 08:43:27;;;;;;;;;20.00;18.00;;;;;11.90;76.99;99370.33;114551;242;40320;-53
2024/02/22 08:46:01;;;;;;;;;23.25;19.00;;;;;11.41;76.77;99373.04;114566;241;161420;-53
2024/02/22 08:48:36;;;;;;;;;15.75;12.00;;;;;11.11;76.78;99364.64;114552;242;40766;-54
2024/02/22 08:51:12;;;;;;;;;21.00;16.50;;;;;11.16;76.89;99359.88;114395;241;161461;-54
2024/02/22 08:53:46;;;;;;;;;21.00;17.00;;;;;11.25;77.70;99355.91;114571;242;41293;-54
2024/02/22 08:56:20;;;;;;;;;22.00;15.25;;;;;11.31;78.16;99351.58;114558;243;39787;-52
2024/02/22 08:58:55;;;;;;;;;17.67;15.00;;;;;11.30;78.40;99355.04;114378;243;39338;-54
2024/02/22 09:01:32;;;;;;;;;22.00;15.50;;;;;11.29;77.89;99353.20;114741;243;39746;-51
2024/02/22 09:04:07;;;;;;;;;19.00;15.33;;;;;11.40;77.61;99353.80;114444;241;160915;-51
2024/02/22 09:06:42;;;;;;;;;19.00;15.00;;;;;11.92;76.97;99345.14;114569;242;40341;-53
2024/02/22 09:09:16;;;;;;;;;23.00;17.75;;;;;12.48;76.61;99338.95;114415;241;161389;-53
2024/02/22 09:11:50;;;;;;;;;19.75;16.00;;;;;13.00;76.08;99338.45;114530;243;40033;-54
2024/02/22 09:14:25;;;;;;;;;22.00;18.00;;;;;13.20;74.91;99337.30;114601;242;41196;-54
2024/02/22 09:16:59;;;;;;;;;19.00;15.00;;;;;13.07;73.06;99336.60;114276;243;40008;-51
2024/02/22 09:19:33;;;;;;;;;19.00;16.00;;;;;12.81;72.83;99329.45;114582;243;39553;-51
2024/02/22 09:22:07;;;;;;;;;17.00;15.00;;;;;12.64;72.79;99321.86;114423;241;161312;-53
2024/02/22 09:24:43;;;;;;;;;18.25;15.00;;;;;12.54;72.90;99318.20;114560;242;39227;-53
2024/02/22 09:27:17;;;;;;;;;16.50;13.50;;;;;12.19;71.68;99313.75;114410;241;163190;-51
2024/02/22 09:29:51;;;;;;;;;16.75;13.75;;;;;11.93;72.78;99311.54;114562;243;39789;-50
2024/02/22 09:32:25;;;;;;;;;18.00;15.00;;;;;11.65;72.82;99310.85;114531;243;41264;-50
2024/02/22 09:34:59;;;;;;;;;13.50;12.00;;;;;11.49;72.49;99303.41;114251;243;41856;-51
2024/02/22 09:37:33;;;;;;;;;17.75;13.25;;;;;11.32;73.00;99302.32;114586;242;40327;-50
2024/02/22 09:40:12;;;;;;;;;14.00;12.00;;;;;11.11;73.59;99300.39;114410;241;161397;-50
2024/02/22 09:42:46;;;;;;;;;11.00;9.25;;;;;11.13;72.96;99299.30;114597;243;40195;-49
2024/02/22 09:45:21;;;;;;;;;19.75;14.75;;;;;11.22;73.63;99298.29;114099;242;161198;-50
2024/02/22 09:47:55;;;;;;;;;17.00;13.00;;;;;11.32;73.84;99300.64;114423;243;39969;-53
2024/02/22 09:50:29;;;;;;;;;15.75;12.00;;;;;11.35;74.27;99296.93;114539;243;40491;-52
2024/02/22 09:53:04;;;;;;;;;12.75;11.00;;;;;11.40;74.34;99296.20;114287;243;41304;-52
2024/02/22 09:55:38;;;;;;;;;16.00;12.00;;;;;11.42;73.12;99288.42;114544;242;40797;-52
2024/02/22 09:58:14;;;;;;;;;15.75;12.00;;;;;11.33;73.07;99286.17;114421;241;161154;-53
2024/02/22 10:00:50;;;;;;;;;13.25;11.00;;;;;11.19;72.97;99285.24;114553;243;39299;-53
2024/02/22 10:03:36;;;;;;;;;13.25;11.00;;;;;11.21;73.47;99281.61;114446;241;161132;-51
2024/02/22 10:06:22;;;;;;;;;16.00;12.00;;;;;11.20;73.43;99278.05;114525;242;39869;-50
2024/02/22 10:09:04;;;;;;;;;12.00;10.67;;;;;11.16;73.47;99272.55;114449;241;161117;-52
2024/02/22 10:11:44;;;;;;;;;12.50;10.00;;;;;11.15;73.75;99269.17;114573;242;39574;-52
2024/02/22 10:14:18;;;;;;;;;14.33;11.67;;;;;11.10;73.36;99257.92;114596;243;39484;-52
2024/02/22 10:16:53;;;;;;;;;13.67;11.00;;;;;11.07;72.89;99256.15;114434;241;160785;-49
2024/02/22 10:19:27;;;;;;;;;14.00;11.75;;;;;11.07;73.63;99251.99;114340;243;40751;-49
2024/02/22 10:22:01;;;;;;;;;15.00;12.00;;;;;11.12;73.17;99254.04;114433;241;161175;-52
2024/02/22 10:24:35;;;;;;;;;11.00;9.50;;;;;11.12;72.97;99253.02;114544;243;41091;-52
2024/02/22 10:27:10;;;;;;;;;15.00;12.00;;;;;11.10;73.03;99247.28;114408;241;160979;-51
2024/02/22 10:29:44;;;;;;;;;12.50;10.25;;;;;11.08;72.92;99238.01;114504;243;39592;-51
2024/02/22 10:32:22;;;;;;;;;16.25;12.00;;;;;11.02;73.05;99235.83;114568;243;41604;-50
2024/02/22 10:34:57;;;;;;;;;8.00;7.00;;;;;10.96;72.70;99233.73;114223;242;160965;-50
2024/02/22 10:37:31;;;;;;;;;14.00;12.00;;;;;10.86;72.59;99231.61;114542;243;41298;-54
2024/02/22 10:40:09;;;;;;;;;14.00;11.50;;;;;10.84;72.41;99221.54;114394;241;161572;-53
2024/02/22 10:42:44;;;;;;;;;12.75;11.00;;;;;10.81;72.57;99219.98;114543;243;41023;-51
2024/02/22 10:45:18;;;;;;;;;11.50;10.00;;;;;10.78;72.64;99214.18;114396;241;161086;-51
2024/02/22 10:47:53;;;;;;;;;12.00;10.00;;;;;10.75;72.89;99209.73;114559;243;40540;-51
2024/02/22 10:50:32;;;;;;;;;13.00;11.00;;;;;10.71;72.80;99204.40;114567;243;39588;-50
2024/02/22 10:53:13;;;;;;;;;12.00;9.75;;;;;10.68;72.85;99199.52;114281;243;41020;-51
2024/02/22 10:55:55;;;;;;;;;13.00;11.00;;;;;10.64;73.38;99194.70;114551;242;39800;-51
2024/02/22 10:58:33;;;;;;;;;10.50;8.00;;;;;10.58;73.46;99196.51;114406;241;161193;-51
2024/02/22 11:01:10;;;;;;;;;13.00;9.25;;;;;10.55;73.31;99195.90;114572;242;39327;-50
2024/02/22 11:03:45;;;;;;;;;14.00;11.00;;;;;10.51;73.55;99194.35;114481;241;160580;-54
2024/02/22 11:06:23;;;;;;;;;12.00;8.00;;;;;10.43;73.82;99197.23;114623;243;41295;-53
2024/02/22 11:09:04;;;;;;;;;13.00;10.00;;;;;10.41;73.98;99198.14;114463;242;161641;-50
2024/02/22 11:11:45;;;;;;;;;9.75;7.00;;;;;10.40;73.39;99196.89;114743;243;39459;-53
2024/02/22 11:14:37;;;;;;;;;13.75;10.00;;;;;10.38;73.32;99186.84;114558;243;40030;-54
2024/02/22 11:17:21;;;;;;;;;13.25;11.00;;;;;10.38;73.71;99184.14;114303;243;39292;-50
2024/02/22 11:20:06;;;;;;;;;10.00;8.00;;;;;10.43;73.34;99180.41;114572;243;39528;-50
2024/02/22 11:22:40;;;;;;;;;8.00;7.00;;;;;10.42;73.08;99177.34;114453;242;161111;-54
2024/02/22 11:25:14;;;;;;;;;9.25;8.00;;;;;10.37;72.56;99172.52;114600;243;41148;-54
2024/02/22 11:27:57;;;;;;;;;12.00;9.00;;;;;10.27;72.87;99162.73;114136;242;160607;-52
2024/02/22 11:30:31;;;;;;;;;11.00;9.00;;;;;10.24;72.70;99158.53;114562;243;41020;-52
2024/02/22 11:33:07;;;;;;;;;11.75;8.75;;;;;10.22;73.23;99150.56;114527;243;160997;-50
2024/02/22 11:35:41;;;;;;;;;14.00;11.00;;;;;10.25;73.05;99146.48;114653;243;41390;-50
2024/02/22 11:38:20;;;;;;;;;12.00;10.00;;;;;10.27;73.06;99141.82;114547;243;39863;-51
2024/02/22 11:40:54;;;;;;;;;14.00;10.00;;;;;10.30;72.96;99137.52;114427;239;160863;-51
2024/02/22 11:43:29;;;;;;;;;10.00;9.00;;;;;10.31;72.68;99130.87;114577;242;39439;-53
2024/02/22 11:46:06;;;;;;;;;11.00;9.00;;;;;10.25;73.00;99129.20;114427;241;160810;-53
2024/02/22 11:48:41;;;;;;;;;12.50;10.00;;;;;10.25;72.87;99126.96;114566;242;39330;-51
2024/02/22 11:51:15;;;;;;;;;11.00;9.00;;;;;10.31;73.08;99121.41;114482;239;161509;-51
2024/02/22 11:53:57;;;;;;;;;8.75;7.00;;;;;10.32;72.82;99116.91;114542;242;39677;-51